Terminal Aerodrome Forecast
Issued by NWS

Home | Current Version | Previous Version | Text Only | Print | Product List | Glossary On
Versions: 1 2 3 4 5 6 7 8 9 10 11 12 13 14 15 16 17 18 19 20 21 22
226
FTUS45 KTFX 162320
TAFCTB
TAF
KCTB 162320Z 1700/1724 25017G27KT P6SM SCT090 SCT200
      TEMPO 1700/1702 25025G35KT=

USA.gov is the U.S. government's official web portal to all federal, state and local government web resources and services.